sensor_id;sensor_type;location;lat;lon;timestamp;temperature;humidity
9980;DHT22;5030;51.532;6.766;2023-01-23T00:00:36;2.00;99.90
9980;DHT22;5030;51.532;6.766;2023-01-23T00:03:01;2.00;99.90
9980;DHT22;5030;51.532;6.766;2023-01-23T00:05:29;2.00;99.90
9980;DHT22;5030;51.532;6.766;2023-01-23T00:07:55;2.00;99.90
9980;DHT22;5030;51.532;6.766;2023-01-23T00:10:21;2.00;99.90
9980;DHT22;5030;51.532;6.766;2023-01-23T00:12:47;2.10;99.90
9980;DHT22;5030;51.532;6.766;2023-01-23T00:15:18;2.10;99.90
9980;DHT22;5030;51.532;6.766;2023-01-23T00:17:45;2.00;99.90
9980;DHT22;5030;51.532;6.766;2023-01-23T00:20:12;2.00;99.90
9980;DHT22;5030;51.532;6.766;2023-01-23T00:22:38;2.00;99.90
9980;DHT22;5030;51.532;6.766;2023-01-23T00:25:06;2.00;99.90
9980;DHT22;5030;51.532;6.766;2023-01-23T00:27:32;2.10;99.90
9980;DHT22;5030;51.532;6.766;2023-01-23T00:29:58;2.10;99.90
9980;DHT22;5030;51.532;6.766;2023-01-23T00:32:23;2.10;99.90
9980;DHT22;5030;51.532;6.766;2023-01-23T00:34:49;2.10;99.90
9980;DHT22;5030;51.532;6.766;2023-01-23T00:37:15;2.10;99.90
9980;DHT22;5030;51.532;6.766;2023-01-23T00:39:41;2.00;99.90
9980;DHT22;5030;51.532;6.766;2023-01-23T00:42:07;2.00;99.90
9980;DHT22;5030;51.532;6.766;2023-01-23T00:44:33;2.10;99.90
9980;DHT22;5030;51.532;6.766;2023-01-23T00:46:59;2.00;99.90
9980;DHT22;5030;51.532;6.766;2023-01-23T00:49:25;2.00;99.90
9980;DHT22;5030;51.532;6.766;2023-01-23T00:51:51;2.10;99.90
9980;DHT22;5030;51.532;6.766;2023-01-23T00:54:18;2.10;99.90
9980;DHT22;5030;51.532;6.766;2023-01-23T00:56:46;2.10;99.90
9980;DHT22;5030;51.532;6.766;2023-01-23T00:59:12;2.10;99.90
9980;DHT22;5030;51.532;6.766;2023-01-23T01:01:37;2.10;99.90
9980;DHT22;5030;51.532;6.766;2023-01-23T01:04:03;2.00;99.90
9980;DHT22;5030;51.532;6.766;2023-01-23T01:06:29;2.10;99.90
9980;DHT22;5030;51.532;6.766;2023-01-23T01:08:56;2.10;99.90
9980;DHT22;5030;51.532;6.766;2023-01-23T01:11:22;2.10;99.90
9980;DHT22;5030;51.532;6.766;2023-01-23T01:13:48;2.10;99.90
9980;DHT22;5030;51.532;6.766;2023-01-23T01:16:13;2.10;99.90
9980;DHT22;5030;51.532;6.766;2023-01-23T01:18:39;2.10;99.90
9980;DHT22;5030;51.532;6.766;2023-01-23T01:21:10;2.10;99.90
9980;DHT22;5030;51.532;6.766;2023-01-23T01:23:37;2.00;99.90
9980;DHT22;5030;51.532;6.766;2023-01-23T01:26:03;2.00;99.90
9980;DHT22;5030;51.532;6.766;2023-01-23T01:28:30;2.10;99.90
9980;DHT22;5030;51.532;6.766;2023-01-23T01:31:01;2.00;99.90
9980;DHT22;5030;51.532;6.766;2023-01-23T01:33:27;2.00;99.90
9980;DHT22;5030;51.532;6.766;2023-01-23T01:35:53;2.10;99.90
9980;DHT22;5030;51.532;6.766;2023-01-23T01:38:21;2.10;99.90
9980;DHT22;5030;51.532;6.766;2023-01-23T01:40:47;2.10;99.90
9980;DHT22;5030;51.532;6.766;2023-01-23T01:43:24;2.10;99.90
9980;DHT22;5030;51.532;6.766;2023-01-23T01:51:41;2.20;99.90
9980;DHT22;5030;51.532;6.766;2023-01-23T01:57:13;2.20;99.90
9980;DHT22;5030;51.532;6.766;2023-01-23T02:02:16;2.20;99.90
9980;DHT22;5030;51.532;6.766;2023-01-23T02:04:47;2.10;99.90
9980;DHT22;5030;51.532;6.766;2023-01-23T02:09:54;2.10;99.90
9980;DHT22;5030;51.532;6.766;2023-01-23T02:12:20;2.10;99.90
9980;DHT22;5030;51.532;6.766;2023-01-23T02:14:46;2.10;99.90
9980;DHT22;5030;51.532;6.766;2023-01-23T02:17:11;2.10;99.90
9980;DHT22;5030;51.532;6.766;2023-01-23T02:27:57;2.20;99.90
9980;DHT22;5030;51.532;6.766;2023-01-23T02:30:23;2.20;99.90
9980;DHT22;5030;51.532;6.766;2023-01-23T02:32:49;2.30;99.90
9980;DHT22;5030;51.532;6.766;2023-01-23T02:35:22;2.30;99.90
9980;DHT22;5030;51.532;6.766;2023-01-23T02:37:51;2.20;99.90
9980;DHT22;5030;51.532;6.766;2023-01-23T02:40:18;2.30;99.90
9980;DHT22;5030;51.532;6.766;2023-01-23T02:42:47;2.30;99.90
9980;DHT22;5030;51.532;6.766;2023-01-23T02:45:13;2.30;99.90
9980;DHT22;5030;51.532;6.766;2023-01-23T02:47:39;2.40;99.90
9980;DHT22;5030;51.532;6.766;2023-01-23T02:50:05;2.30;99.90
9980;DHT22;5030;51.532;6.766;2023-01-23T02:52:31;2.30;99.90
9980;DHT22;5030;51.532;6.766;2023-01-23T02:54:58;2.30;99.90
9980;DHT22;5030;51.532;6.766;2023-01-23T02:59:59;2.20;99.90
9980;DHT22;5030;51.532;6.766;2023-01-23T03:02:40;2.10;99.90
9980;DHT22;5030;51.532;6.766;2023-01-23T03:05:06;2.10;99.90
9980;DHT22;5030;51.532;6.766;2023-01-23T03:07:33;2.10;99.90
9980;DHT22;5030;51.532;6.766;2023-01-23T03:09:58;2.00;99.90
9980;DHT22;5030;51.532;6.766;2023-01-23T03:12:25;2.00;99.90
9980;DHT22;5030;51.532;6.766;2023-01-23T03:14:51;2.20;99.90
9980;DHT22;5030;51.532;6.766;2023-01-23T03:17:19;2.30;99.90
9980;DHT22;5030;51.532;6.766;2023-01-23T03:19:45;2.30;99.90
9980;DHT22;5030;51.532;6.766;2023-01-23T03:22:17;2.20;99.90
9980;DHT22;5030;51.532;6.766;2023-01-23T03:24:43;2.10;99.90
9980;DHT22;5030;51.532;6.766;2023-01-23T03:27:08;2.10;99.90
9980;DHT22;5030;51.532;6.766;2023-01-23T03:29:34;2.10;99.90
9980;DHT22;5030;51.532;6.766;2023-01-23T03:32:18;2.10;99.90
9980;DHT22;5030;51.532;6.766;2023-01-23T03:34:45;2.10;99.90
9980;DHT22;5030;51.532;6.766;2023-01-23T03:37:11;2.10;99.90
9980;DHT22;5030;51.532;6.766;2023-01-23T03:39:37;2.10;99.90
9980;DHT22;5030;51.532;6.766;2023-01-23T03:42:22;2.30;99.90
9980;DHT22;5030;51.532;6.766;2023-01-23T03:44:48;2.40;99.90
9980;DHT22;5030;51.532;6.766;2023-01-23T03:47:13;2.30;99.90
9980;DHT22;5030;51.532;6.766;2023-01-23T03:49:39;2.20;99.90
9980;DHT22;5030;51.532;6.766;2023-01-23T03:52:05;2.20;99.90
9980;DHT22;5030;51.532;6.766;2023-01-23T03:54:31;2.10;99.90
9980;DHT22;5030;51.532;6.766;2023-01-23T03:56:56;2.10;99.90
9980;DHT22;5030;51.532;6.766;2023-01-23T03:59:22;2.20;99.90
9980;DHT22;5030;51.532;6.766;2023-01-23T04:01:48;2.20;99.90
9980;DHT22;5030;51.532;6.766;2023-01-23T04:04:14;2.10;99.90
9980;DHT22;5030;51.532;6.766;2023-01-23T04:06:40;2.20;99.90
9980;DHT22;5030;51.532;6.766;2023-01-23T04:09:06;2.10;99.90
9980;DHT22;5030;51.532;6.766;2023-01-23T04:11:31;2.10;99.90
9980;DHT22;5030;51.532;6.766;2023-01-23T04:13:57;2.10;99.90
9980;DHT22;5030;51.532;6.766;2023-01-23T04:16:23;2.20;99.90
9980;DHT22;5030;51.532;6.766;2023-01-23T04:18:49;2.20;99.90
9980;DHT22;5030;51.532;6.766;2023-01-23T04:21:15;2.20;99.90
9980;DHT22;5030;51.532;6.766;2023-01-23T04:23:41;2.20;99.90
9980;DHT22;5030;51.532;6.766;2023-01-23T04:26:07;2.20;99.90
9980;DHT22;5030;51.532;6.766;2023-01-23T04:28:33;2.20;99.90
9980;DHT22;5030;51.532;6.766;2023-01-23T04:30:58;2.10;99.90
9980;DHT22;5030;51.532;6.766;2023-01-23T04:33:24;2.10;99.90
9980;DHT22;5030;51.532;6.766;2023-01-23T04:35:55;2.20;99.90
9980;DHT22;5030;51.532;6.766;2023-01-23T04:38:22;2.20;99.90
9980;DHT22;5030;51.532;6.766;2023-01-23T04:40:48;2.30;99.90
9980;DHT22;5030;51.532;6.766;2023-01-23T04:43:14;2.30;99.90
9980;DHT22;5030;51.532;6.766;2023-01-23T04:45:40;2.20;99.90
9980;DHT22;5030;51.532;6.766;2023-01-23T04:48:06;2.20;99.90
9980;DHT22;5030;51.532;6.766;2023-01-23T04:50:32;2.30;99.90
9980;DHT22;5030;51.532;6.766;2023-01-23T04:52:58;2.30;99.90
9980;DHT22;5030;51.532;6.766;2023-01-23T04:55:23;2.30;99.90
9980;DHT22;5030;51.532;6.766;2023-01-23T04:57:49;2.20;99.90
9980;DHT22;5030;51.532;6.766;2023-01-23T05:00:16;2.30;99.90
9980;DHT22;5030;51.532;6.766;2023-01-23T05:02:42;2.20;99.90
9980;DHT22;5030;51.532;6.766;2023-01-23T05:05:10;2.20;99.90
9980;DHT22;5030;51.532;6.766;2023-01-23T05:07:37;2.20;99.90
9980;DHT22;5030;51.532;6.766;2023-01-23T05:10:02;2.20;99.90
9980;DHT22;5030;51.532;6.766;2023-01-23T05:12:28;2.20;99.90
9980;DHT22;5030;51.532;6.766;2023-01-23T05:14:54;2.20;99.90
9980;DHT22;5030;51.532;6.766;2023-01-23T05:17:19;2.20;99.90
9980;DHT22;5030;51.532;6.766;2023-01-23T05:19:45;2.30;99.90
9980;DHT22;5030;51.532;6.766;2023-01-23T05:22:11;2.30;99.90
9980;DHT22;5030;51.532;6.766;2023-01-23T05:24:36;2.30;99.90
9980;DHT22;5030;51.532;6.766;2023-01-23T05:27:02;2.30;99.90
9980;DHT22;5030;51.532;6.766;2023-01-23T05:29:28;2.30;99.90
9980;DHT22;5030;51.532;6.766;2023-01-23T05:31:53;2.30;99.90
9980;DHT22;5030;51.532;6.766;2023-01-23T05:34:19;2.30;99.90
9980;DHT22;5030;51.532;6.766;2023-01-23T05:36:45;2.20;99.90
9980;DHT22;5030;51.532;6.766;2023-01-23T05:39:12;2.20;99.90
9980;DHT22;5030;51.532;6.766;2023-01-23T05:41:37;2.20;99.90
9980;DHT22;5030;51.532;6.766;2023-01-23T05:44:03;2.40;99.90
9980;DHT22;5030;51.532;6.766;2023-01-23T05:46:28;2.40;99.90
9980;DHT22;5030;51.532;6.766;2023-01-23T05:48:54;2.40;99.90
9980;DHT22;5030;51.532;6.766;2023-01-23T05:51:20;2.50;99.90
9980;DHT22;5030;51.532;6.766;2023-01-23T05:53:47;2.60;99.90
9980;DHT22;5030;51.532;6.766;2023-01-23T05:56:14;2.60;99.90
9980;DHT22;5030;51.532;6.766;2023-01-23T05:58:40;2.70;99.90
9980;DHT22;5030;51.532;6.766;2023-01-23T06:01:05;2.50;99.90
9980;DHT22;5030;51.532;6.766;2023-01-23T06:03:31;2.50;99.90
9980;DHT22;5030;51.532;6.766;2023-01-23T06:05:59;2.50;99.90
9980;DHT22;5030;51.532;6.766;2023-01-23T06:08:25;2.40;99.90
9980;DHT22;5030;51.532;6.766;2023-01-23T06:10:51;2.40;99.90
9980;DHT22;5030;51.532;6.766;2023-01-23T06:13:17;2.40;99.90
9980;DHT22;5030;51.532;6.766;2023-01-23T06:15:43;2.50;99.90
9980;DHT22;5030;51.532;6.766;2023-01-23T06:18:09;2.50;99.90
9980;DHT22;5030;51.532;6.766;2023-01-23T06:20:34;2.50;99.90
9980;DHT22;5030;51.532;6.766;2023-01-23T06:23:00;2.50;99.90
9980;DHT22;5030;51.532;6.766;2023-01-23T06:25:26;2.60;99.90
9980;DHT22;5030;51.532;6.766;2023-01-23T06:27:52;2.60;99.90
9980;DHT22;5030;51.532;6.766;2023-01-23T06:30:18;2.60;99.90
9980;DHT22;5030;51.532;6.766;2023-01-23T06:32:44;2.60;99.90
9980;DHT22;5030;51.532;6.766;2023-01-23T06:35:09;2.60;99.90
9980;DHT22;5030;51.532;6.766;2023-01-23T06:37:37;2.60;99.90
9980;DHT22;5030;51.532;6.766;2023-01-23T06:40:03;2.60;99.90
9980;DHT22;5030;51.532;6.766;2023-01-23T06:42:29;2.60;99.90
9980;DHT22;5030;51.532;6.766;2023-01-23T06:44:55;2.60;99.90
9980;DHT22;5030;51.532;6.766;2023-01-23T06:47:20;2.80;99.90
9980;DHT22;5030;51.532;6.766;2023-01-23T06:49:48;2.80;99.90
9980;DHT22;5030;51.532;6.766;2023-01-23T06:52:14;2.90;99.90
9980;DHT22;5030;51.532;6.766;2023-01-23T06:54:39;2.80;99.90
9980;DHT22;5030;51.532;6.766;2023-01-23T06:57:05;2.80;99.90
9980;DHT22;5030;51.532;6.766;2023-01-23T06:59:31;2.70;99.90
9980;DHT22;5030;51.532;6.766;2023-01-23T07:01:57;2.60;99.90
9980;DHT22;5030;51.532;6.766;2023-01-23T07:04:23;2.50;99.90
9980;DHT22;5030;51.532;6.766;2023-01-23T07:06:48;2.50;99.90
9980;DHT22;5030;51.532;6.766;2023-01-23T07:09:15;2.50;99.90
9980;DHT22;5030;51.532;6.766;2023-01-23T07:11:41;2.50;99.90
9980;DHT22;5030;51.532;6.766;2023-01-23T07:14:07;2.60;99.90
9980;DHT22;5030;51.532;6.766;2023-01-23T07:16:33;2.50;99.90
9980;DHT22;5030;51.532;6.766;2023-01-23T07:19:01;2.50;99.90
9980;DHT22;5030;51.532;6.766;2023-01-23T07:21:27;2.50;99.90
9980;DHT22;5030;51.532;6.766;2023-01-23T07:23:53;2.50;99.90
9980;DHT22;5030;51.532;6.766;2023-01-23T07:26:19;2.50;99.90
9980;DHT22;5030;51.532;6.766;2023-01-23T07:28:46;2.60;99.90
9980;DHT22;5030;51.532;6.766;2023-01-23T07:31:12;2.70;99.90
9980;DHT22;5030;51.532;6.766;2023-01-23T07:33:38;2.70;99.90
9980;DHT22;5030;51.532;6.766;2023-01-23T07:36:05;2.60;99.90
9980;DHT22;5030;51.532;6.766;2023-01-23T07:38:31;2.70;99.90
9980;DHT22;5030;51.532;6.766;2023-01-23T07:40:57;2.70;99.90
9980;DHT22;5030;51.532;6.766;2023-01-23T07:43:23;2.60;99.90
9980;DHT22;5030;51.532;6.766;2023-01-23T07:45:49;2.70;99.90
9980;DHT22;5030;51.532;6.766;2023-01-23T07:48:15;2.60;99.90
9980;DHT22;5030;51.532;6.766;2023-01-23T07:50:41;2.70;99.90
9980;DHT22;5030;51.532;6.766;2023-01-23T07:53:07;2.80;99.90
9980;DHT22;5030;51.532;6.766;2023-01-23T07:55:36;2.80;99.90
9980;DHT22;5030;51.532;6.766;2023-01-23T07:58:02;2.80;99.90
9980;DHT22;5030;51.532;6.766;2023-01-23T08:00:28;2.80;99.90
9980;DHT22;5030;51.532;6.766;2023-01-23T08:02:55;2.70;99.90
9980;DHT22;5030;51.532;6.766;2023-01-23T08:05:24;2.70;99.90
9980;DHT22;5030;51.532;6.766;2023-01-23T08:07:50;2.70;99.90
9980;DHT22;5030;51.532;6.766;2023-01-23T08:10:17;2.70;99.90
9980;DHT22;5030;51.532;6.766;2023-01-23T08:12:43;2.80;99.90
9980;DHT22;5030;51.532;6.766;2023-01-23T08:15:09;2.80;99.90
9980;DHT22;5030;51.532;6.766;2023-01-23T08:17:35;2.70;99.90
9980;DHT22;5030;51.532;6.766;2023-01-23T08:20:01;2.80;99.90
9980;DHT22;5030;51.532;6.766;2023-01-23T08:22:27;2.80;99.90
9980;DHT22;5030;51.532;6.766;2023-01-23T08:24:54;2.80;99.90
9980;DHT22;5030;51.532;6.766;2023-01-23T08:27:20;2.80;99.90
9980;DHT22;5030;51.532;6.766;2023-01-23T08:29:46;2.80;99.90
9980;DHT22;5030;51.532;6.766;2023-01-23T08:32:12;2.80;99.90
9980;DHT22;5030;51.532;6.766;2023-01-23T08:34:39;2.80;99.90
9980;DHT22;5030;51.532;6.766;2023-01-23T08:37:05;2.90;99.90
9980;DHT22;5030;51.532;6.766;2023-01-23T08:39:31;2.90;99.90
9980;DHT22;5030;51.532;6.766;2023-01-23T08:41:57;2.90;99.90
9980;DHT22;5030;51.532;6.766;2023-01-23T08:44:23;2.90;99.90
9980;DHT22;5030;51.532;6.766;2023-01-23T08:46:49;3.00;99.90
9980;DHT22;5030;51.532;6.766;2023-01-23T08:49:14;3.00;99.90
9980;DHT22;5030;51.532;6.766;2023-01-23T08:51:44;3.00;99.90
9980;DHT22;5030;51.532;6.766;2023-01-23T08:54:10;3.00;99.90
9980;DHT22;5030;51.532;6.766;2023-01-23T08:56:36;3.10;99.90
9980;DHT22;5030;51.532;6.766;2023-01-23T08:59:02;3.00;99.90
9980;DHT22;5030;51.532;6.766;2023-01-23T09:01:29;3.10;99.90
9980;DHT22;5030;51.532;6.766;2023-01-23T09:03:55;3.10;99.90
9980;DHT22;5030;51.532;6.766;2023-01-23T09:06:22;3.10;99.90
9980;DHT22;5030;51.532;6.766;2023-01-23T09:08:47;3.20;99.90
9980;DHT22;5030;51.532;6.766;2023-01-23T09:11:14;3.20;99.90
9980;DHT22;5030;51.532;6.766;2023-01-23T09:13:41;3.10;99.90
9980;DHT22;5030;51.532;6.766;2023-01-23T09:16:08;3.20;99.90
9980;DHT22;5030;51.532;6.766;2023-01-23T09:18:35;3.30;99.90
9980;DHT22;5030;51.532;6.766;2023-01-23T09:21:14;3.30;99.90
9980;DHT22;5030;51.532;6.766;2023-01-23T09:23:41;3.40;99.90
9980;DHT22;5030;51.532;6.766;2023-01-23T09:26:09;3.20;99.90
9980;DHT22;5030;51.532;6.766;2023-01-23T09:28:35;3.30;99.90
9980;DHT22;5030;51.532;6.766;2023-01-23T09:31:03;3.30;99.90
9980;DHT22;5030;51.532;6.766;2023-01-23T09:33:29;3.40;99.90
9980;DHT22;5030;51.532;6.766;2023-01-23T09:35:54;3.50;99.90
9980;DHT22;5030;51.532;6.766;2023-01-23T09:38:22;3.40;99.90
9980;DHT22;5030;51.532;6.766;2023-01-23T09:40:58;3.40;99.90
9980;DHT22;5030;51.532;6.766;2023-01-23T09:46:06;3.60;99.90
9980;DHT22;5030;51.532;6.766;2023-01-23T09:48:43;3.70;99.90
9980;DHT22;5030;51.532;6.766;2023-01-23T09:53:45;3.50;99.90
9980;DHT22;5030;51.532;6.766;2023-01-23T09:56:34;3.50;99.90
9980;DHT22;5030;51.532;6.766;2023-01-23T10:01:35;3.40;99.90
9980;DHT22;5030;51.532;6.766;2023-01-23T10:04:02;3.30;99.90
9980;DHT22;5030;51.532;6.766;2023-01-23T10:06:30;3.40;99.90
9980;DHT22;5030;51.532;6.766;2023-01-23T10:12:01;3.60;99.90
9980;DHT22;5030;51.532;6.766;2023-01-23T10:22:32;4.10;99.90
9980;DHT22;5030;51.532;6.766;2023-01-23T10:24:59;4.10;99.90
9980;DHT22;5030;51.532;6.766;2023-01-23T10:27:33;4.10;99.90
9980;DHT22;5030;51.532;6.766;2023-01-23T10:30:23;4.40;99.90
9980;DHT22;5030;51.532;6.766;2023-01-23T10:33:13;4.30;99.90
9980;DHT22;5030;51.532;6.766;2023-01-23T10:35:50;4.40;99.90
9980;DHT22;5030;51.532;6.766;2023-01-23T10:38:42;4.50;99.90
9980;DHT22;5030;51.532;6.766;2023-01-23T10:41:12;4.70;99.90
9980;DHT22;5030;51.532;6.766;2023-01-23T10:43:40;4.80;99.90
9980;DHT22;5030;51.532;6.766;2023-01-23T10:48:50;4.70;99.90
9980;DHT22;5030;51.532;6.766;2023-01-23T10:54:12;4.60;99.90
9980;DHT22;5030;51.532;6.766;2023-01-23T11:02:18;4.60;99.90
9980;DHT22;5030;51.532;6.766;2023-01-23T11:04:47;4.50;99.90
9980;DHT22;5030;51.532;6.766;2023-01-23T11:12:29;4.50;99.90
9980;DHT22;5030;51.532;6.766;2023-01-23T11:17:37;4.60;99.90
9980;DHT22;5030;51.532;6.766;2023-01-23T11:23:14;4.40;99.90
9980;DHT22;5030;51.532;6.766;2023-01-23T11:25:45;4.60;99.90
9980;DHT22;5030;51.532;6.766;2023-01-23T11:28:47;4.70;99.90
9980;DHT22;5030;51.532;6.766;2023-01-23T11:31:19;4.60;99.90
9980;DHT22;5030;51.532;6.766;2023-01-23T11:34:09;4.60;99.90
9980;DHT22;5030;51.532;6.766;2023-01-23T11:41:52;4.70;99.90
9980;DHT22;5030;51.532;6.766;2023-01-23T11:44:20;4.70;99.90
9980;DHT22;5030;51.532;6.766;2023-01-23T11:52:05;4.50;99.90
9980;DHT22;5030;51.532;6.766;2023-01-23T11:54:36;4.60;99.90
9980;DHT22;5030;51.532;6.766;2023-01-23T11:57:15;4.70;99.90
9980;DHT22;5030;51.532;6.766;2023-01-23T12:08:06;4.70;99.90
9980;DHT22;5030;51.532;6.766;2023-01-23T12:27:45;4.60;99.90
9980;DHT22;5030;51.532;6.766;2023-01-23T12:30:33;4.60;99.90
9980;DHT22;5030;51.532;6.766;2023-01-23T12:33:44;4.70;99.90
9980;DHT22;5030;51.532;6.766;2023-01-23T12:41:49;4.50;99.90
9980;DHT22;5030;51.532;6.766;2023-01-23T12:44:57;4.50;99.90
9980;DHT22;5030;51.532;6.766;2023-01-23T12:48:05;4.70;99.90
9980;DHT22;5030;51.532;6.766;2023-01-23T12:50:48;4.70;99.90
9980;DHT22;5030;51.532;6.766;2023-01-23T12:53:17;4.40;99.90
9980;DHT22;5030;51.532;6.766;2023-01-23T12:58:30;4.40;99.90
9980;DHT22;5030;51.532;6.766;2023-01-23T13:14:44;4.60;99.90
9980;DHT22;5030;51.532;6.766;2023-01-23T13:17:30;4.60;99.90
9980;DHT22;5030;51.532;6.766;2023-01-23T13:20:21;4.50;99.90
9980;DHT22;5030;51.532;6.766;2023-01-23T13:25:47;4.50;99.90
9980;DHT22;5030;51.532;6.766;2023-01-23T13:28:34;4.40;99.90
9980;DHT22;5030;51.532;6.766;2023-01-23T13:31:03;4.40;99.90
9980;DHT22;5030;51.532;6.766;2023-01-23T13:35:55;4.50;99.90
9980;DHT22;5030;51.532;6.766;2023-01-23T13:52:10;4.40;99.90
9980;DHT22;5030;51.532;6.766;2023-01-23T13:55:00;4.60;99.90
9980;DHT22;5030;51.532;6.766;2023-01-23T13:57:45;4.60;99.90
9980;DHT22;5030;51.532;6.766;2023-01-23T14:00:18;4.50;99.90
9980;DHT22;5030;51.532;6.766;2023-01-23T14:06:05;4.50;99.90
9980;DHT22;5030;51.532;6.766;2023-01-23T14:08:32;4.50;99.90
9980;DHT22;5030;51.532;6.766;2023-01-23T14:10:58;4.50;99.90
9980;DHT22;5030;51.532;6.766;2023-01-23T14:13:25;4.50;99.90
9980;DHT22;5030;51.532;6.766;2023-01-23T14:15:53;4.40;99.90
9980;DHT22;5030;51.532;6.766;2023-01-23T14:21:20;4.60;99.90
9980;DHT22;5030;51.532;6.766;2023-01-23T14:23:52;4.50;99.90
9980;DHT22;5030;51.532;6.766;2023-01-23T14:26:24;4.30;99.90
9980;DHT22;5030;51.532;6.766;2023-01-23T14:29:02;4.30;99.90
9980;DHT22;5030;51.532;6.766;2023-01-23T14:31:35;4.40;99.90
9980;DHT22;5030;51.532;6.766;2023-01-23T14:34:13;4.20;99.90
9980;DHT22;5030;51.532;6.766;2023-01-23T14:36:46;4.30;99.90
9980;DHT22;5030;51.532;6.766;2023-01-23T14:39:22;4.10;99.90
9980;DHT22;5030;51.532;6.766;2023-01-23T14:41:51;4.10;99.90
9980;DHT22;5030;51.532;6.766;2023-01-23T14:44:32;4.30;99.90
9980;DHT22;5030;51.532;6.766;2023-01-23T14:46:59;4.30;99.90
9980;DHT22;5030;51.532;6.766;2023-01-23T14:49:33;4.30;99.90
9980;DHT22;5030;51.532;6.766;2023-01-23T14:52:04;4.20;99.90
9980;DHT22;5030;51.532;6.766;2023-01-23T14:54:33;4.10;99.90
9980;DHT22;5030;51.532;6.766;2023-01-23T14:57:00;4.10;99.90
9980;DHT22;5030;51.532;6.766;2023-01-23T14:59:40;4.20;99.90
9980;DHT22;5030;51.532;6.766;2023-01-23T15:05:20;4.20;99.90
9980;DHT22;5030;51.532;6.766;2023-01-23T15:08:17;4.20;99.90
9980;DHT22;5030;51.532;6.766;2023-01-23T15:10:49;4.10;99.90
9980;DHT22;5030;51.532;6.766;2023-01-23T15:13:24;4.20;99.90
9980;DHT22;5030;51.532;6.766;2023-01-23T15:16:05;4.20;99.90
9980;DHT22;5030;51.532;6.766;2023-01-23T15:18:34;4.10;99.90
9980;DHT22;5030;51.532;6.766;2023-01-23T15:21:05;4.20;99.90
9980;DHT22;5030;51.532;6.766;2023-01-23T15:23:36;4.10;99.90
9980;DHT22;5030;51.532;6.766;2023-01-23T15:31:46;4.20;99.90
9980;DHT22;5030;51.532;6.766;2023-01-23T15:36:53;4.00;99.90
9980;DHT22;5030;51.532;6.766;2023-01-23T15:39:32;4.00;99.90
9980;DHT22;5030;51.532;6.766;2023-01-23T15:42:03;3.90;99.90
9980;DHT22;5030;51.532;6.766;2023-01-23T15:44:45;4.00;99.90
9980;DHT22;5030;51.532;6.766;2023-01-23T15:47:10;4.10;99.90
9980;DHT22;5030;51.532;6.766;2023-01-23T15:49:38;4.10;99.90
9980;DHT22;5030;51.532;6.766;2023-01-23T15:52:24;4.00;99.90
9980;DHT22;5030;51.532;6.766;2023-01-23T15:54:56;4.10;99.90
9980;DHT22;5030;51.532;6.766;2023-01-23T15:57:23;4.10;99.90
9980;DHT22;5030;51.532;6.766;2023-01-23T15:59:48;3.90;99.90
9980;DHT22;5030;51.532;6.766;2023-01-23T16:02:16;3.90;99.90
9980;DHT22;5030;51.532;6.766;2023-01-23T16:04:43;3.90;99.90
9980;DHT22;5030;51.532;6.766;2023-01-23T16:07:23;4.00;99.90
9980;DHT22;5030;51.532;6.766;2023-01-23T16:09:50;4.10;99.90
9980;DHT22;5030;51.532;6.766;2023-01-23T16:12:18;4.00;99.90
9980;DHT22;5030;51.532;6.766;2023-01-23T16:14:44;4.00;99.90
9980;DHT22;5030;51.532;6.766;2023-01-23T16:17:10;3.90;99.90
9980;DHT22;5030;51.532;6.766;2023-01-23T16:19:36;3.80;99.90
9980;DHT22;5030;51.532;6.766;2023-01-23T16:22:01;3.80;99.90
9980;DHT22;5030;51.532;6.766;2023-01-23T16:24:27;3.80;99.90
9980;DHT22;5030;51.532;6.766;2023-01-23T16:26:53;3.80;99.90
9980;DHT22;5030;51.532;6.766;2023-01-23T16:29:26;3.80;99.90
9980;DHT22;5030;51.532;6.766;2023-01-23T16:31:52;3.80;99.90
9980;DHT22;5030;51.532;6.766;2023-01-23T16:34:18;3.90;99.90
9980;DHT22;5030;51.532;6.766;2023-01-23T16:36:44;4.00;99.90
9980;DHT22;5030;51.532;6.766;2023-01-23T16:39:16;4.00;99.90
9980;DHT22;5030;51.532;6.766;2023-01-23T16:41:44;3.90;99.90
9980;DHT22;5030;51.532;6.766;2023-01-23T16:44:13;3.80;99.90
9980;DHT22;5030;51.532;6.766;2023-01-23T16:46:42;3.70;99.90
9980;DHT22;5030;51.532;6.766;2023-01-23T16:49:08;3.70;99.90
9980;DHT22;5030;51.532;6.766;2023-01-23T16:51:34;3.80;99.90
9980;DHT22;5030;51.532;6.766;2023-01-23T16:54:00;3.80;99.90
9980;DHT22;5030;51.532;6.766;2023-01-23T16:56:37;3.90;99.90
9980;DHT22;5030;51.532;6.766;2023-01-23T16:59:14;3.90;99.90
9980;DHT22;5030;51.532;6.766;2023-01-23T17:01:42;3.80;99.90
9980;DHT22;5030;51.532;6.766;2023-01-23T17:04:08;4.00;99.90
9980;DHT22;5030;51.532;6.766;2023-01-23T17:06:37;4.00;99.90
9980;DHT22;5030;51.532;6.766;2023-01-23T17:09:02;3.90;99.90
9980;DHT22;5030;51.532;6.766;2023-01-23T17:11:33;3.90;99.90
9980;DHT22;5030;51.532;6.766;2023-01-23T17:14:15;3.90;99.90
9980;DHT22;5030;51.532;6.766;2023-01-23T17:16:42;3.90;99.90
9980;DHT22;5030;51.532;6.766;2023-01-23T17:21:46;4.00;99.90
9980;DHT22;5030;51.532;6.766;2023-01-23T17:24:16;4.00;99.90
9980;DHT22;5030;51.532;6.766;2023-01-23T17:26:43;4.00;99.90
9980;DHT22;5030;51.532;6.766;2023-01-23T17:29:09;4.00;99.90
9980;DHT22;5030;51.532;6.766;2023-01-23T17:31:37;3.90;99.90
9980;DHT22;5030;51.532;6.766;2023-01-23T17:34:03;4.00;99.90
9980;DHT22;5030;51.532;6.766;2023-01-23T17:36:30;4.00;99.90
9980;DHT22;5030;51.532;6.766;2023-01-23T17:38:59;4.00;99.90
9980;DHT22;5030;51.532;6.766;2023-01-23T17:41:25;4.00;99.90
9980;DHT22;5030;51.532;6.766;2023-01-23T17:43:51;4.00;99.90
9980;DHT22;5030;51.532;6.766;2023-01-23T17:46:25;3.90;99.90
9980;DHT22;5030;51.532;6.766;2023-01-23T17:48:52;3.90;99.90
9980;DHT22;5030;51.532;6.766;2023-01-23T17:51:19;3.80;99.90
9980;DHT22;5030;51.532;6.766;2023-01-23T17:53:46;3.90;99.90
9980;DHT22;5030;51.532;6.766;2023-01-23T17:56:12;3.80;99.90
9980;DHT22;5030;51.532;6.766;2023-01-23T17:58:38;3.80;99.90
9980;DHT22;5030;51.532;6.766;2023-01-23T18:01:05;3.80;99.90
9980;DHT22;5030;51.532;6.766;2023-01-23T18:03:35;3.80;99.90
9980;DHT22;5030;51.532;6.766;2023-01-23T18:06:01;3.80;99.90
9980;DHT22;5030;51.532;6.766;2023-01-23T18:08:26;3.80;99.90
9980;DHT22;5030;51.532;6.766;2023-01-23T18:10:53;3.80;99.90
9980;DHT22;5030;51.532;6.766;2023-01-23T18:13:42;3.80;99.90
9980;DHT22;5030;51.532;6.766;2023-01-23T18:16:15;3.80;99.90
9980;DHT22;5030;51.532;6.766;2023-01-23T18:18:47;3.80;99.90
9980;DHT22;5030;51.532;6.766;2023-01-23T18:21:18;3.80;99.90
9980;DHT22;5030;51.532;6.766;2023-01-23T18:23:44;3.70;99.90
9980;DHT22;5030;51.532;6.766;2023-01-23T18:34:49;3.70;99.90
9980;DHT22;5030;51.532;6.766;2023-01-23T18:43:37;3.70;99.90
9980;DHT22;5030;51.532;6.766;2023-01-23T18:46:14;3.70;99.90
9980;DHT22;5030;51.532;6.766;2023-01-23T18:48:42;3.60;99.90
9980;DHT22;5030;51.532;6.766;2023-01-23T18:57:10;3.60;99.90
9980;DHT22;5030;51.532;6.766;2023-01-23T19:07:40;3.70;99.90
9980;DHT22;5030;51.532;6.766;2023-01-23T19:10:12;3.70;99.90
9980;DHT22;5030;51.532;6.766;2023-01-23T19:16:15;3.60;99.90
9980;DHT22;5030;51.532;6.766;2023-01-23T19:18:43;3.70;99.90
9980;DHT22;5030;51.532;6.766;2023-01-23T19:23:45;3.80;99.90
9980;DHT22;5030;51.532;6.766;2023-01-23T19:26:13;3.80;99.90
9980;DHT22;5030;51.532;6.766;2023-01-23T19:28:39;3.80;99.90
9980;DHT22;5030;51.532;6.766;2023-01-23T19:31:06;3.80;99.90
9980;DHT22;5030;51.532;6.766;2023-01-23T19:33:35;3.70;99.90
9980;DHT22;5030;51.532;6.766;2023-01-23T19:36:00;3.60;99.90
9980;DHT22;5030;51.532;6.766;2023-01-23T19:38:26;3.50;99.90
9980;DHT22;5030;51.532;6.766;2023-01-23T19:40:53;3.60;99.90
9980;DHT22;5030;51.532;6.766;2023-01-23T19:43:19;3.50;99.90
9980;DHT22;5030;51.532;6.766;2023-01-23T19:45:45;3.60;99.90